Time;durP1;ratioP1;P1;durP2;ratioP2;P2;SDS_P1;SDS_P2;PMS_P1;PMS_P2;Temp;Humidity;BMP_temperature;BMP_pressure;BME280_temperature;BME280_humidity;BME280_pressure;Samples;Min_cycle;Max_cycle;Signal;HPM_P1;HPM_P2
2023/01/25 00:00:32;;;;;;;19.13;15.40;;;;;;;4.53;59.03;102322.53;5049620;28;20053;-59
2023/01/25 00:02:59;;;;;;;14.60;13.00;;;;;;;4.59;59.24;102327.16;5051207;28;20049;-60
2023/01/25 00:05:26;;;;;;;17.63;15.02;;;;;;;4.52;58.73;102318.13;5051695;28;20478;-59
2023/01/25 00:07:53;;;;;;;17.45;14.48;;;;;;;4.52;58.60;102316.19;5051649;28;20445;-59
2023/01/25 00:10:21;;;;;;;16.88;13.73;;;;;;;4.52;59.01;102312.59;5051453;28;20064;-59
2023/01/25 00:12:50;;;;;;;19.10;14.63;;;;;;;4.48;59.73;102312.19;5055045;28;20057;-58
2023/01/25 00:15:17;;;;;;;16.92;14.20;;;;;;;4.49;59.85;102313.88;5054927;28;20056;-60
2023/01/25 00:17:44;;;;;;;17.85;14.23;;;;;;;4.46;58.94;102311.59;5054967;28;20057;-60
2023/01/25 00:20:12;;;;;;;17.75;14.18;;;;;;;4.45;59.53;102313.50;5055023;28;20391;-60
2023/01/25 00:22:39;;;;;;;15.50;12.93;;;;;;;4.46;59.20;102306.91;5055399;28;20408;-59
2023/01/25 00:25:07;;;;;;;16.08;13.30;;;;;;;4.50;59.44;102298.19;5055154;28;20052;-60
2023/01/25 00:27:34;;;;;;;16.52;13.90;;;;;;;4.56;59.79;102297.28;5054986;28;20056;-59
2023/01/25 00:30:04;;;;;;;16.17;13.35;;;;;;;4.59;59.80;102296.78;5055236;28;20064;-60
2023/01/25 00:32:49;;;;;;;16.08;13.55;;;;;;;4.55;59.67;102287.28;5052992;28;20068;-58
2023/01/25 00:35:16;;;;;;;17.42;14.07;;;;;;;4.56;59.03;102291.75;5035757;28;20470;-60
2023/01/25 00:37:48;;;;;;;16.38;13.50;;;;;;;4.60;59.39;102281.91;5035049;28;20052;-60
2023/01/25 00:40:16;;;;;;;17.48;14.55;;;;;;;4.60;59.98;102284.66;5044981;28;20424;-59
2023/01/25 00:42:44;;;;;;;17.38;14.55;;;;;;;4.61;59.12;102283.63;5054929;28;20056;-60
2023/01/25 00:45:12;;;;;;;16.95;14.02;;;;;;;4.66;59.46;102275.47;5054671;28;20056;-60
2023/01/25 00:47:40;;;;;;;18.57;14.43;;;;;;;4.63;58.89;102270.44;5053928;28;20060;-60
2023/01/25 00:50:09;;;;;;;17.13;14.10;;;;;;;4.54;58.82;102267.13;5053327;28;20049;-59
2023/01/25 00:52:39;;;;;;;18.63;15.88;;;;;;;4.44;59.83;102275.94;5054521;28;20049;-58
2023/01/25 00:55:08;;;;;;;19.25;15.25;;;;;;;4.25;59.51;102268.72;5054658;28;20405;-60
2023/01/25 00:57:35;;;;;;;20.48;16.33;;;;;;;4.15;59.96;102274.75;5054797;28;20049;-60
2023/01/25 01:00:06;;;;;;;17.95;14.52;;;;;;;4.09;60.67;102261.03;5054302;28;20132;-60
2023/01/25 01:02:34;;;;;;;15.77;13.65;;;;;;;4.05;59.50;102261.50;5052894;28;20056;-60
2023/01/25 01:05:03;;;;;;;19.30;15.38;;;;;;;4.05;60.14;102260.63;5054092;28;20179;-60
2023/01/25 01:07:30;;;;;;;19.98;15.27;;;;;;;4.12;59.84;102263.34;5053886;28;20482;-60
2023/01/25 01:09:59;;;;;;;18.90;15.43;;;;;;;4.11;61.19;102261.66;5054177;28;20136;-59
2023/01/25 01:12:26;;;;;;;18.23;15.52;;;;;;;4.19;61.29;102258.59;5054349;28;20060;-60
2023/01/25 01:14:53;;;;;;;17.75;14.43;;;;;;;4.23;60.85;102259.84;5053991;28;20059;-59
2023/01/25 01:17:20;;;;;;;17.75;14.50;;;;;;;4.28;60.77;102262.72;5053306;28;20049;-60
2023/01/25 01:19:49;;;;;;;19.02;14.95;;;;;;;4.34;61.01;102259.06;5054595;28;20049;-60
2023/01/25 01:22:16;;;;;;;17.60;14.23;;;;;;;4.38;60.20;102260.28;5053957;28;20060;-60
2023/01/25 01:24:43;;;;;;;18.75;14.80;;;;;;;4.40;60.23;102260.91;5054549;28;20053;-59
2023/01/25 01:27:11;;;;;;;20.67;15.45;;;;;;;4.37;60.58;102261.38;5054068;28;20501;-59
2023/01/25 01:29:38;;;;;;;21.95;16.73;;;;;;;4.41;60.05;102250.72;5054505;28;20478;-60
2023/01/25 01:32:06;;;;;;;19.52;15.57;;;;;;;4.43;60.24;102259.59;5052532;28;20049;-61
2023/01/25 01:34:34;;;;;;;18.52;14.50;;;;;;;4.41;60.44;102248.81;5054377;28;20076;-60
2023/01/25 01:37:02;;;;;;;19.08;15.23;;;;;;;4.42;60.41;102261.53;5053513;28;20387;-61
2023/01/25 01:39:30;;;;;;;17.67;14.52;;;;;;;4.42;60.77;102255.16;5053134;28;20052;-60
2023/01/25 01:41:57;;;;;;;20.42;15.95;;;;;;;4.45;60.06;102250.03;5053468;28;20055;-60
2023/01/25 01:44:46;;;;;;;18.63;15.13;;;;;;;4.46;59.74;102268.28;5054299;28;20064;-62
2023/01/25 01:47:18;;;;;;;19.17;15.10;;;;;;;4.47;59.82;102258.94;5052209;28;20048;-61
2023/01/25 01:49:51;;;;;;;18.88;15.00;;;;;;;4.48;60.40;102257.84;5054144;28;20500;-61
2023/01/25 01:52:23;;;;;;;19.75;15.05;;;;;;;4.45;60.13;102254.69;5053908;28;20048;-61
2023/01/25 01:54:56;;;;;;;21.52;16.50;;;;;;;4.42;60.69;102264.28;5053300;28;20063;-62
2023/01/25 01:57:29;;;;;;;18.85;15.23;;;;;;;4.40;60.34;102252.63;5053540;28;20081;-59
2023/01/25 02:00:09;;;;;;;23.77;16.98;;;;;;;4.44;60.65;102251.09;5053479;28;20485;-62
2023/01/25 02:02:41;;;;;;;19.10;15.13;;;;;;;4.51;60.79;102239.16;5052138;28;20053;-60
2023/01/25 02:05:12;;;;;;;20.42;16.23;;;;;;;4.51;60.85;102250.19;5052740;28;20417;-61
2023/01/25 02:07:41;;;;;;;20.52;15.73;;;;;;;4.50;60.44;102249.34;5053508;28;20048;-61
2023/01/25 02:10:11;;;;;;;22.70;16.70;;;;;;;4.48;60.13;102254.25;5053053;28;20057;-61
2023/01/25 02:12:39;;;;;;;21.23;16.02;;;;;;;4.52;60.02;102254.66;5053112;28;20056;-60
2023/01/25 02:15:07;;;;;;;21.00;16.73;;;;;;;4.50;59.74;102248.53;5052860;28;20049;-61
2023/01/25 02:17:37;;;;;;;22.00;16.88;;;;;;;4.32;60.38;102263.13;5051993;28;20052;-61
2023/01/25 02:20:13;;;;;;;19.85;15.88;;;;;;;4.14;59.92;102263.97;5053125;28;20056;-61
2023/01/25 02:22:48;;;;;;;24.33;17.63;;;;;;;4.12;61.59;102257.84;5052860;28;20064;-61
2023/01/25 02:25:17;;;;;;;19.33;15.02;;;;;;;4.17;60.57;102246.94;5053011;28;20056;-59
2023/01/25 02:27:48;;;;;;;20.15;15.60;;;;;;;4.17;61.60;102253.31;5052781;28;20390;-60
2023/01/25 02:30:16;;;;;;;19.45;15.65;;;;;;;4.24;60.71;102255.97;5052870;28;20059;-60
2023/01/25 02:32:45;;;;;;;20.42;16.00;;;;;;;4.26;61.58;102248.31;5051772;28;20064;-61
2023/01/25 02:35:19;;;;;;;20.25;15.10;;;;;;;4.31;61.50;102254.03;5051954;28;20053;-61
2023/01/25 02:37:46;;;;;;;18.95;13.82;;;;;;;4.25;61.23;102246.66;5052710;28;20057;-61
2023/01/25 02:40:13;;;;;;;21.40;16.45;;;;;;;4.31;61.21;102251.25;5052835;28;20056;-60
2023/01/25 02:42:44;;;;;;;19.85;14.85;;;;;;;4.39;60.93;102245.44;5052597;28;20061;-60
2023/01/25 02:45:15;;;;;;;22.33;15.02;;;;;;;3.88;61.47;102248.50;5051734;28;20061;-60
2023/01/25 02:47:43;;;;;;;16.80;12.23;;;;;;;3.94;62.17;102251.19;5051432;28;20060;-61
2023/01/25 02:50:11;;;;;;;18.95;13.60;;;;;;;3.88;61.18;102249.34;5052507;28;20056;-61
2023/01/25 02:52:38;;;;;;;18.10;13.05;;;;;;;3.95;61.13;102252.03;5052295;28;20063;-61
2023/01/25 02:55:06;;;;;;;19.00;14.02;;;;;;;3.85;61.40;102244.28;5052431;28;20408;-61
2023/01/25 02:57:34;;;;;;;18.42;14.13;;;;;;;3.82;61.65;102247.47;5052553;28;20056;-61
2023/01/25 03:00:04;;;;;;;18.02;13.35;;;;;;;3.81;62.35;102248.56;5051688;28;20377;-61
2023/01/25 03:02:32;;;;;;;17.20;12.18;;;;;;;3.90;61.29;102238.09;5051581;28;20057;-62
2023/01/25 03:04:59;;;;;;;17.77;12.75;;;;;;;3.85;62.00;102239.63;5052019;28;20052;-61
2023/01/25 03:07:26;;;;;;;18.80;13.70;;;;;;;3.85;62.20;102244.28;5052056;28;20055;-61
2023/01/25 03:09:53;;;;;;;20.75;14.80;;;;;;;3.92;63.12;102245.06;5052470;28;20405;-61
2023/01/25 03:12:21;;;;;;;19.67;14.43;;;;;;;3.96;62.18;102243.53;5052390;28;20049;-62
2023/01/25 03:14:48;;;;;;;20.10;13.70;;;;;;;3.95;62.22;102236.34;5052593;28;20053;-61
2023/01/25 03:17:17;;;;;;;19.20;14.13;;;;;;;4.00;62.75;102233.75;5050508;28;20072;-61
2023/01/25 03:19:44;;;;;;;19.98;13.05;;;;;;;3.99;62.70;102234.84;5051934;28;20414;-62
2023/01/25 03:22:11;;;;;;;21.65;15.00;;;;;;;3.96;62.49;102235.25;5052092;28;20059;-61
2023/01/25 03:24:39;;;;;;;19.42;13.93;;;;;;;4.02;62.36;102239.03;5052406;28;20059;-60
2023/01/25 03:27:13;;;;;;;20.73;13.82;;;;;;;4.02;62.52;102231.59;5052050;28;20048;-61
2023/01/25 03:29:41;;;;;;;18.45;13.15;;;;;;;4.07;62.39;102226.28;5052605;28;20076;-61
2023/01/25 03:32:09;;;;;;;18.80;13.23;;;;;;;4.10;62.67;102227.72;5050451;28;20055;-61
2023/01/25 03:34:41;;;;;;;21.38;14.07;;;;;;;4.07;61.84;102225.41;5052226;28;20057;-60
2023/01/25 03:37:08;;;;;;;19.90;12.73;;;;;;;4.09;62.62;102225.19;5052083;28;20053;-61
2023/01/25 03:39:35;;;;;;;19.98;14.25;;;;;;;4.11;61.55;102217.53;5052220;28;20423;-61
2023/01/25 03:42:02;;;;;;;21.10;14.35;;;;;;;4.11;61.67;102207.31;5051453;28;20064;-61
2023/01/25 03:44:31;;;;;;;20.52;14.40;;;;;;;4.10;61.84;102215.84;5051469;28;20053;-61
2023/01/25 03:46:59;;;;;;;19.60;14.47;;;;;;;4.12;62.22;102208.19;5051392;28;20044;-61
2023/01/25 03:49:26;;;;;;;20.10;12.40;;;;;;;4.15;61.85;102207.72;5054945;28;20452;-61
2023/01/25 03:51:56;;;;;;;18.23;13.20;;;;;;;4.16;61.69;102203.88;5054712;28;20074;-61
2023/01/25 03:54:23;;;;;;;;;;;;;;;4.13;62.63;102188.63;5055143;28;20049;-61
2023/01/25 03:56:54;;;;;;;17.15;11.73;;;;;;;4.19;61.42;102181.38;5055243;28;20364;-60
2023/01/25 03:59:21;;;;;;;19.20;12.98;;;;;;;4.19;61.51;102176.69;5054578;28;20382;-60
2023/01/25 04:01:51;;;;;;;19.75;13.15;;;;;;;4.16;61.37;102173.53;5052200;28;20417;-60
2023/01/25 04:04:18;;;;;;;17.67;11.35;;;;;;;4.20;61.69;102167.38;5054554;28;20053;-60
2023/01/25 04:06:45;;;;;;;18.80;12.93;;;;;;;4.16;61.58;102166.13;5054399;28;20428;-60
2023/01/25 04:09:14;;;;;;;20.08;14.13;;;;;;;4.17;61.31;102164.22;5053944;28;20060;-61
2023/01/25 04:11:44;;;;;;;16.95;12.00;;;;;;;4.18;61.83;102166.75;5053085;28;20059;-60
2023/01/25 04:14:11;;;;;;;16.13;11.23;;;;;;;4.14;62.11;102157.25;5054348;28;20052;-61
2023/01/25 04:16:39;;;;;;;18.13;11.32;;;;;;;4.03;61.81;102158.00;5053454;28;20045;-60
2023/01/25 04:19:06;;;;;;;15.30;10.57;;;;;;;3.91;61.42;102163.44;5054557;28;20056;-60
2023/01/25 04:21:33;;;;;;;13.27;8.95;;;;;;;3.68;61.68;102169.59;5054611;28;20052;-60
2023/01/25 04:24:04;;;;;;;13.40;9.27;;;;;;;3.65;62.23;102162.66;5054610;28;20053;-60
2023/01/25 04:26:33;;;;;;;13.73;9.02;;;;;;;3.63;61.40;102162.03;5053194;28;20063;-60
2023/01/25 04:29:01;;;;;;;13.73;9.20;;;;;;;3.23;63.56;102170.63;5052638;28;20055;-60
2023/01/25 04:31:28;;;;;;;12.70;8.70;;;;;;;3.30;63.26;102167.81;5052909;28;20053;-60
2023/01/25 04:33:55;;;;;;;15.23;9.35;;;;;;;3.26;62.22;102152.81;5053938;28;20512;-60
2023/01/25 04:36:23;;;;;;;12.27;8.13;;;;;;;3.12;62.99;102159.47;5053755;28;20056;-60
2023/01/25 04:38:50;;;;;;;12.45;7.78;;;;;;;2.84;63.92;102155.22;5053936;28;20055;-60
2023/01/25 04:41:17;;;;;;;11.73;8.60;;;;;;;2.77;64.16;102138.75;5053687;28;20064;-60
2023/01/25 04:43:46;;;;;;;12.30;8.75;;;;;;;2.77;64.03;102141.50;5012150;28;1232391;-60
2023/01/25 04:46:13;;;;;;;13.57;8.68;;;;;;;2.72;64.38;102137.72;5054094;28;20405;-60
2023/01/25 04:48:40;;;;;;;12.60;8.73;;;;;;;2.87;65.29;102137.41;5048840;28;20049;-60
2023/01/25 04:51:08;;;;;;;15.55;9.63;;;;;;;2.80;63.80;102140.22;5054512;28;20064;-60
2023/01/25 04:53:35;;;;;;;13.73;9.00;;;;;;;2.90;64.65;102137.81;5055019;28;20409;-60
2023/01/25 04:56:05;;;;;;;14.85;9.55;;;;;;;2.99;64.26;102133.72;5054995;28;20490;-60
2023/01/25 04:58:33;;;;;;;14.77;9.77;;;;;;;2.95;64.53;102139.91;5054437;28;20049;-60
2023/01/25 05:01:02;;;;;;;13.90;8.95;;;;;;;2.88;64.38;102137.22;5053323;28;20386;-60
2023/01/25 05:03:30;;;;;;;15.57;10.05;;;;;;;3.08;63.62;102123.28;5054713;28;20057;-60
2023/01/25 05:05:57;;;;;;;14.65;8.70;;;;;;;3.13;64.63;102117.97;5054716;28;20057;-60
2023/01/25 05:08:25;;;;;;;11.95;8.05;;;;;;;3.01;63.85;102125.25;5054419;28;20083;-60
2023/01/25 05:10:55;;;;;;;11.77;7.55;;;;;;;3.03;63.93;102128.63;5054497;28;20064;-60
2023/01/25 05:13:22;;;;;;;11.82;8.02;;;;;;;2.82;63.73;102124.34;5054274;28;20072;-60
2023/01/25 05:15:49;;;;;;;14.60;9.30;;;;;;;2.82;64.88;102132.59;5052582;28;20060;-60
2023/01/25 05:18:18;;;;;;;13.73;8.73;;;;;;;2.88;65.64;102130.84;5053671;28;20053;-59
2023/01/25 05:20:45;;;;;;;13.93;8.57;;;;;;;2.82;64.50;102135.34;5054354;28;20486;-60
2023/01/25 05:23:12;;;;;;;14.95;9.20;;;;;;;2.78;65.09;102136.84;5054265;28;20053;-60
2023/01/25 05:28:24;;;;;;;15.15;9.63;;;;;;;2.99;65.60;102125.47;5057463;28;20064;-59
2023/01/25 05:30:52;;;;;;;15.20;9.20;;;;;;;3.02;65.34;102121.41;5038630;28;20057;-60
2023/01/25 05:33:20;;;;;;;13.95;8.65;;;;;;;3.01;64.85;102117.00;5054119;28;20059;-61
2023/01/25 05:35:47;;;;;;;17.02;10.38;;;;;;;3.03;64.18;102123.97;5054026;28;20060;-60
2023/01/25 05:38:15;;;;;;;18.15;11.05;;;;;;;3.06;65.54;102119.91;5053815;28;20049;-60
2023/01/25 05:40:42;;;;;;;15.27;10.10;;;;;;;3.19;64.80;102117.06;5054293;28;20053;-60
2023/01/25 05:43:09;;;;;;;14.95;9.43;;;;;;;3.22;64.48;102121.28;5053770;28;20079;-60
2023/01/25 05:45:39;;;;;;;17.15;10.90;;;;;;;3.23;64.45;102126.56;5052452;28;20068;-60
2023/01/25 05:48:06;;;;;;;18.70;11.55;;;;;;;3.28;65.16;102127.81;5052838;28;20049;-60
2023/01/25 05:50:35;;;;;;;20.65;12.15;;;;;;;3.35;65.30;102128.59;5053925;28;20064;-60
2023/01/25 05:53:02;;;;;;;17.40;11.57;;;;;;;3.45;63.95;102131.66;5053645;28;20058;-60
2023/01/25 05:55:29;;;;;;;17.40;9.90;;;;;;;3.45;63.98;102127.00;5053726;28;20056;-60
2023/01/25 05:57:57;;;;;;;19.40;12.32;;;;;;;3.57;64.65;102129.88;5054055;28;20048;-60
2023/01/25 06:00:24;;;;;;;17.15;10.60;;;;;;;3.60;63.79;102120.28;5053562;28;20049;-60
2023/01/25 06:02:51;;;;;;;20.23;12.85;;;;;;;3.59;64.20;102121.34;5052497;28;20064;-60
2023/01/25 06:05:18;;;;;;;20.45;11.40;;;;;;;3.68;63.83;102114.50;5053330;28;20057;-60
2023/01/25 06:07:47;;;;;;;16.27;10.80;;;;;;;3.76;64.12;102116.94;5053059;28;20544;-60
2023/01/25 06:10:15;;;;;;;21.23;13.27;;;;;;;3.74;63.69;102112.72;5052716;28;20059;-60
2023/01/25 06:12:42;;;;;;;17.80;11.48;;;;;;;3.71;63.00;102107.69;5053387;28;20075;-60
2023/01/25 06:15:10;;;;;;;17.35;10.55;;;;;;;3.73;63.29;102111.03;5053262;28;20060;-60
2023/01/25 06:17:37;;;;;;;18.33;11.55;;;;;;;3.78;63.42;102102.94;5048292;28;20052;-60
2023/01/25 06:20:05;;;;;;;16.30;10.90;;;;;;;3.80;62.40;102109.06;5038290;28;20045;-60
2023/01/25 06:22:33;;;;;;;16.17;10.23;;;;;;;3.83;62.89;102109.44;5034480;28;20461;-60
2023/01/25 06:25:01;;;;;;;15.13;10.80;;;;;;;3.87;62.47;102104.31;5038765;28;20061;-60
2023/01/25 06:27:28;;;;;;;16.98;11.00;;;;;;;3.78;62.24;102111.19;5032955;28;20049;-60
2023/01/25 06:29:56;;;;;;;18.45;11.40;;;;;;;3.78;62.56;102108.44;5047923;28;20052;-60
2023/01/25 06:32:24;;;;;;;15.73;10.23;;;;;;;3.79;62.24;102110.97;5051530;28;20053;-60
2023/01/25 06:34:52;;;;;;;17.60;10.60;;;;;;;3.77;61.92;102106.75;5049507;28;20068;-60
2023/01/25 06:37:21;;;;;;;16.50;10.13;;;;;;;3.78;62.33;102112.06;5051989;28;20045;-60
2023/01/25 06:39:48;;;;;;;14.43;9.70;;;;;;;3.80;62.78;102114.56;5051039;28;20053;-60
2023/01/25 06:42:17;;;;;;;14.15;9.48;;;;;;;3.78;62.33;102119.47;5051485;28;20068;-60
2023/01/25 06:44:44;;;;;;;17.17;10.73;;;;;;;3.79;62.81;102110.13;5051589;28;20056;-59
2023/01/25 06:47:12;;;;;;;16.67;10.43;;;;;;;3.79;61.91;102110.13;5049284;28;20056;-61
2023/01/25 06:49:39;;;;;;;16.50;10.18;;;;;;;3.82;62.29;102115.19;5051087;28;20056;-60
2023/01/25 06:52:06;;;;;;;19.08;12.10;;;;;;;3.80;62.46;102118.19;5049190;28;20060;-60
2023/01/25 06:54:34;;;;;;;18.00;11.80;;;;;;;3.78;62.54;102117.56;5049930;28;20057;-60
2023/01/25 06:57:01;;;;;;;19.73;11.90;;;;;;;3.78;62.24;102113.94;5051874;28;20053;-60
2023/01/25 06:59:30;;;;;;;17.88;11.98;;;;;;;3.73;61.49;102114.63;5050932;28;20049;-61
2023/01/25 07:01:57;;;;;;;18.02;11.23;;;;;;;3.71;62.39;102118.69;5045778;28;20053;-60
2023/01/25 07:04:24;;;;;;;18.05;11.43;;;;;;;3.63;62.60;102114.31;5045875;28;20045;-60
2023/01/25 07:06:52;;;;;;;17.85;11.40;;;;;;;3.68;62.79;102113.66;5051620;28;20053;-60
2023/01/25 07:09:22;;;;;;;17.80;10.95;;;;;;;3.75;61.71;102108.91;5051794;28;20497;-60
2023/01/25 07:11:50;;;;;;;20.65;12.02;;;;;;;3.63;62.50;102117.94;5049623;28;20056;-60
2023/01/25 07:14:18;;;;;;;17.15;11.23;;;;;;;3.42;62.86;102115.56;5051637;28;20061;-59
2023/01/25 07:16:46;;;;;;;18.15;10.68;;;;;;;3.54;63.19;102118.44;5049476;28;20052;-60
2023/01/25 07:19:13;;;;;;;18.15;11.38;;;;;;;3.43;62.78;102120.03;5047447;28;20044;-60
2023/01/25 07:21:41;;;;;;;17.52;10.77;;;;;;;3.34;62.67;102118.63;5051515;28;20048;-60
2023/01/25 07:24:14;;;;;;;17.23;11.27;;;;;;;3.11;63.27;102109.09;5052376;28;20068;-60
2023/01/25 07:26:41;;;;;;;16.95;10.70;;;;;;;3.15;64.20;102107.56;5052222;28;20163;-57
2023/01/25 07:29:13;;;;;;;16.13;10.65;;;;;;;3.15;64.42;102110.31;5052273;28;20048;-60
2023/01/25 07:31:41;;;;;;;20.98;12.75;;;;;;;3.19;63.63;102106.06;5049779;28;20424;-60
2023/01/25 07:34:11;;;;;;;19.40;12.00;;;;;;;3.22;64.18;102104.75;5051814;28;20056;-60
2023/01/25 07:36:39;;;;;;;16.02;11.40;;;;;;;3.13;63.53;102098.69;5051733;28;20048;-60
2023/01/25 07:39:08;;;;;;;21.75;12.43;;;;;;;3.10;64.46;102101.03;5051213;28;20511;-60
2023/01/25 07:41:35;;;;;;;21.48;13.00;;;;;;;3.20;64.25;102102.22;5050228;28;20500;-60
2023/01/25 07:44:02;;;;;;;21.73;13.77;;;;;;;3.31;64.71;102106.16;5051117;28;20412;-60
2023/01/25 07:46:30;;;;;;;20.40;13.10;;;;;;;3.34;65.03;102100.22;5049509;28;20052;-60
2023/01/25 07:48:57;;;;;;;21.63;13.68;;;;;;;3.41;63.59;102094.63;5048162;28;20045;-60
2023/01/25 07:51:26;;;;;;;22.48;14.43;;;;;;;3.46;64.30;102092.03;5050883;28;20057;-60
2023/01/25 07:53:55;;;;;;;19.83;13.45;;;;;;;3.54;64.14;102086.22;5049907;28;20064;-60
2023/01/25 07:56:23;;;;;;;21.15;13.82;;;;;;;3.71;63.53;102082.88;5047313;28;20532;-59
2023/01/25 07:58:53;;;;;;;17.52;11.85;;;;;;;3.72;62.94;102087.34;5041952;28;20058;-59
2023/01/25 08:01:22;;;;;;;18.27;13.00;;;;;;;3.78;62.75;102092.75;5037201;28;20073;-59
2023/01/25 08:03:50;;;;;;;17.40;11.60;;;;;;;3.86;63.69;102086.94;5044501;28;20057;-59
2023/01/25 08:06:17;;;;;;;18.73;11.50;;;;;;;3.95;63.04;102098.50;5046358;28;20056;-59
2023/01/25 08:08:48;;;;;;;18.48;12.77;;;;;;;3.92;62.77;102101.72;5042375;28;20067;-59
2023/01/25 08:11:19;;;;;;;21.05;12.63;;;;;;;3.96;62.02;102094.66;5045091;28;20065;-62
2023/01/25 08:13:48;;;;;;;22.85;13.85;;;;;;;3.99;62.98;102093.34;5044360;28;20056;-63
2023/01/25 08:16:20;;;;;;;24.63;14.73;;;;;;;4.04;62.51;102097.13;5043664;28;20083;-63
2023/01/25 08:18:48;;;;;;;18.15;12.40;;;;;;;4.10;62.02;102089.84;5044223;28;20493;-63
2023/01/25 08:21:15;;;;;;;19.63;13.27;;;;;;;4.13;61.81;102085.78;5046567;28;20064;-63
2023/01/25 08:23:43;;;;;;;19.58;13.15;;;;;;;4.17;62.39;102079.56;5044732;28;20072;-63
2023/01/25 08:26:14;;;;;;;20.10;13.85;;;;;;;4.16;61.43;102080.66;5044510;28;20333;-59
2023/01/25 08:28:41;;;;;;;20.73;13.65;;;;;;;4.16;61.85;102088.06;5044955;28;20053;-60
2023/01/25 08:31:10;;;;;;;19.00;12.10;;;;;;;4.14;61.44;102084.72;5044585;28;20056;-59
2023/01/25 08:33:39;;;;;;;18.55;12.52;;;;;;;4.23;61.12;102084.16;5044432;28;20064;-59
2023/01/25 08:36:08;;;;;;;22.63;14.25;;;;;;;4.12;61.46;102078.59;5047555;28;20057;-59
2023/01/25 08:38:36;;;;;;;20.93;14.50;;;;;;;4.12;62.03;102075.84;5047589;28;20481;-59
2023/01/25 08:41:06;;;;;;;21.35;13.75;;;;;;;4.20;61.36;102079.09;5047822;28;20494;-59
2023/01/25 08:43:35;;;;;;;23.08;14.00;;;;;;;4.22;61.95;102076.97;5048643;28;20048;-63
2023/01/25 08:46:03;;;;;;;27.70;14.60;;;;;;;4.29;62.06;102071.34;5046301;28;20059;-63
2023/01/25 08:48:30;;;;;;;23.23;14.40;;;;;;;4.23;61.58;102066.75;5045494;28;20060;-63
2023/01/25 08:50:58;;;;;;;18.48;12.77;;;;;;;4.30;61.42;102069.44;5045363;28;20048;-62
2023/01/25 08:53:27;;;;;;;19.85;13.15;;;;;;;4.18;62.26;102069.34;5047494;28;20053;-60
2023/01/25 08:55:54;;;;;;;19.45;12.70;;;;;;;4.12;61.12;102078.59;5046990;28;20094;-60
2023/01/25 08:58:22;;;;;;;23.27;14.10;;;;;;;4.10;61.34;102072.47;5043855;28;20056;-60
2023/01/25 09:00:51;;;;;;;19.95;13.07;;;;;;;3.99;62.25;102071.28;5046119;28;20041;-63
2023/01/25 09:03:18;;;;;;;20.00;12.63;;;;;;;4.09;62.47;102068.00;5045676;28;20520;-62
2023/01/25 09:05:45;;;;;;;20.17;13.05;;;;;;;4.18;62.45;102066.59;5048531;28;20065;-63
2023/01/25 09:08:12;;;;;;;19.23;12.45;;;;;;;4.28;61.43;102069.66;5047442;28;20057;-61
2023/01/25 09:10:39;;;;;;;19.38;12.60;;;;;;;4.19;61.58;102057.28;5046844;28;20053;-63
2023/01/25 09:13:07;;;;;;;20.27;13.57;;;;;;;4.09;62.15;102055.06;5048714;28;20529;-63
2023/01/25 09:15:34;;;;;;;21.33;13.50;;;;;;;3.94;62.17;102049.94;5045076;28;20057;-63
2023/01/25 09:18:03;;;;;;;18.90;12.43;;;;;;;4.10;61.49;102047.66;5041767;28;20493;-60
2023/01/25 09:20:30;;;;;;;17.30;12.05;;;;;;;4.16;61.85;102057.72;5044755;28;20060;-59
2023/01/25 09:22:57;;;;;;;18.98;11.95;;;;;;;4.03;61.59;102039.44;5045983;28;20053;-60
2023/01/25 09:25:25;;;;;;;15.48;11.02;;;;;;;4.16;61.75;102043.94;5047184;28;20514;-60
2023/01/25 09:27:52;;;;;;;19.38;13.07;;;;;;;3.83;62.23;102036.94;5048311;28;20508;-61
2023/01/25 09:30:19;;;;;;;17.67;11.63;;;;;;;3.54;63.18;102031.13;5041604;28;20208;-60
2023/01/25 09:32:49;;;;;;;19.15;11.02;;;;;;;3.69;62.83;102038.16;5047182;28;20048;-63
2023/01/25 09:35:17;;;;;;;19.05;11.55;;;;;;;3.63;62.13;102035.28;5045896;28;20071;-63
2023/01/25 09:37:45;;;;;;;19.30;12.15;;;;;;;3.47;63.33;102040.56;5047270;28;20052;-62
2023/01/25 09:40:21;;;;;;;18.50;11.70;;;;;;;3.55;62.85;102032.81;5047577;28;20448;-62
2023/01/25 09:42:59;;;;;;;17.00;11.02;;;;;;;3.61;61.88;102033.78;5047492;28;20417;-62
2023/01/25 09:45:32;;;;;;;19.55;12.25;;;;;;;3.38;63.13;102031.72;5043234;28;20075;-62
2023/01/25 09:48:09;;;;;;;19.15;11.27;;;;;;;3.28;63.57;102032.25;5046017;28;20045;-62
2023/01/25 09:50:48;;;;;;;20.98;12.10;;;;;;;3.14;64.52;102026.03;5045504;28;20068;-62
2023/01/25 09:53:27;;;;;;;22.92;13.55;;;;;;;3.29;64.91;102030.34;5047737;28;20509;-62
2023/01/25 09:55:58;;;;;;;21.73;13.52;;;;;;;3.33;63.58;102024.16;5044787;28;20049;-61
2023/01/25 09:58:31;;;;;;;19.98;12.52;;;;;;;3.45;64.51;102011.31;5045404;28;20060;-62
2023/01/25 10:01:24;;;;;;;21.92;14.20;;;;;;;3.29;63.55;102016.56;5045093;28;20064;-59
2023/01/25 10:03:56;;;;;;;21.25;13.32;;;;;;;3.38;63.92;102017.94;5044039;28;20056;-59
2023/01/25 10:06:36;;;;;;;22.50;13.27;;;;;;;3.42;64.14;102013.66;5048064;28;20057;-59
2023/01/25 10:09:13;;;;;;;22.15;12.60;;;;;;;3.66;63.21;102010.00;5047454;28;20068;-59
2023/01/25 10:11:41;;;;;;;15.98;11.35;;;;;;;3.75;63.44;102001.44;5043662;28;20053;-59
2023/01/25 10:14:14;;;;;;;16.83;10.85;;;;;;;3.65;63.86;101999.22;5046536;28;20060;-59
2023/01/25 10:16:55;;;;;;;18.73;11.77;;;;;;;3.76;63.13;102001.22;5044823;28;20398;-59
2023/01/25 10:19:31;;;;;;;17.83;10.95;;;;;;;3.76;63.33;101994.81;5048353;28;20049;-62
2023/01/25 10:22:05;;;;;;;17.63;11.18;;;;;;;3.72;63.38;102002.75;5044779;28;20044;-62
2023/01/25 10:24:51;;;;;;;18.70;11.25;;;;;;;3.65;63.60;102002.81;5047390;28;20053;-62
2023/01/25 10:27:29;;;;;;;19.55;12.27;;;;;;;3.60;64.10;101997.16;5047201;28;20053;-62
2023/01/25 10:29:59;;;;;;;17.45;10.68;;;;;;;3.72;63.29;101990.88;5046413;28;20064;-62
2023/01/25 10:32:31;;;;;;;17.50;10.48;;;;;;;3.57;63.66;101997.63;5042118;28;20068;-62
2023/01/25 10:35:10;;;;;;;16.80;10.40;;;;;;;3.75;64.01;101990.41;5047774;28;20060;-62
2023/01/25 10:37:39;;;;;;;19.00;11.25;;;;;;;3.80;63.67;101988.66;5044455;28;20060;-62
2023/01/25 10:40:15;;;;;;;17.30;11.48;;;;;;;3.90;62.98;101979.81;5048536;28;20060;-63
2023/01/25 10:42:48;;;;;;;18.40;11.52;;;;;;;3.92;62.99;101972.16;5043259;28;20076;-62
2023/01/25 10:45:17;;;;;;;23.08;12.82;;;;;;;3.88;63.38;101976.44;5044149;28;20065;-62
2023/01/25 10:47:48;;;;;;;21.98;14.38;;;;;;;3.78;63.86;101967.88;5043578;28;20057;-62
2023/01/25 10:50:54;;;;;;;17.55;11.80;;;;;;;4.04;62.93;101963.94;5046870;28;20445;-62
2023/01/25 10:53:28;;;;;;;18.98;12.85;;;;;;;4.26;62.78;101961.47;5028903;28;20048;-62
2023/01/25 10:56:05;;;;;;;20.33;13.50;;;;;;;4.31;61.97;101958.03;5041468;28;20053;-60
2023/01/25 10:58:35;;;;;;;22.50;14.65;;;;;;;4.09;62.86;101960.47;5040027;28;20049;-60
2023/01/25 11:01:06;;;;;;;20.02;12.57;;;;;;;4.15;62.10;101949.34;5045501;28;20397;-59
2023/01/25 11:03:36;;;;;;;22.23;14.07;;;;;;;4.22;61.77;101940.97;5045900;28;20421;-59
2023/01/25 11:06:03;;;;;;;;;;;;;;;4.05;62.46;101938.91;5044520;28;20053;-59
2023/01/25 11:08:35;;;;;;;20.75;12.98;;;;;;;4.27;62.43;101936.44;5045555;28;19920;-59
2023/01/25 11:11:24;;;;;;;21.38;13.48;;;;;;;4.41;61.72;101934.31;5047447;28;20052;-59
2023/01/25 11:13:53;;;;;;;19.40;11.50;;;;;;;4.55;61.79;101926.63;5045277;28;20413;-59
2023/01/25 11:16:29;;;;;;;24.17;15.57;;;;;;;4.54;61.12;101927.72;5043880;28;20485;-59
2023/01/25 11:18:58;;;;;;;25.00;15.63;;;;;;;4.54;61.06;101926.91;5042503;28;20080;-60
2023/01/25 11:21:29;;;;;;;22.90;13.77;;;;;;;4.61;61.88;101925.69;5047397;28;20056;-60
2023/01/25 11:24:04;;;;;;;22.90;14.98;;;;;;;4.65;61.70;101917.78;5045002;28;20079;-60
2023/01/25 11:26:33;;;;;;;26.20;16.52;;;;;;;4.64;61.10;101918.84;5045479;28;20335;-62
2023/01/25 11:29:11;;;;;;;27.02;16.60;;;;;;;4.74;61.11;101905.28;5041430;28;20404;-63
2023/01/25 11:31:40;;;;;;;21.80;13.75;;;;;;;4.58;60.62;101906.03;5044458;28;20401;-62